createdAt,value
2022-11-24T00:00:30.694Z,83.52
2022-11-24T00:01:30.843Z,83.65
2022-11-24T00:02:31.045Z,83.91
2022-11-24T00:03:31.102Z,83.83
2022-11-24T00:04:31.395Z,83.61
2022-11-24T00:05:31.321Z,83.61
2022-11-24T00:06:31.414Z,83.54
2022-11-24T00:07:31.585Z,83.77
2022-11-24T00:08:31.651Z,83.94
2022-11-24T00:09:31.813Z,83.85
2022-11-24T00:10:31.935Z,83.58
2022-11-24T00:11:32.152Z,83.75
2022-11-24T00:12:32.199Z,83.77
2022-11-24T00:13:32.319Z,83.51
2022-11-24T00:14:32.650Z,83.34
2022-11-24T00:15:32.499Z,83.34
2022-11-24T00:16:32.680Z,83.36
2022-11-24T00:17:32.770Z,83.21
2022-11-24T00:18:32.908Z,83.06
2022-11-24T00:19:33.067Z,83.11
2022-11-24T00:20:33.187Z,83.29
2022-11-24T00:21:33.446Z,83.34
2022-11-24T00:22:33.448Z,82.94
2022-11-24T00:23:33.629Z,83.17
2022-11-24T00:24:34.023Z,83.36
2022-11-24T00:25:33.828Z,83.37
2022-11-24T00:26:33.993Z,83.22
2022-11-24T00:27:34.090Z,83.06
2022-11-24T00:28:34.229Z,83.32
2022-11-24T00:29:34.395Z,83.27
2022-11-24T00:30:34.525Z,83.10
2022-11-24T00:31:34.760Z,82.82
2022-11-24T00:32:34.726Z,82.86
2022-11-24T00:33:34.873Z,82.62
2022-11-24T00:34:35.311Z,82.58
2022-11-24T00:35:35.101Z,82.67
2022-11-24T00:36:35.280Z,83.04
2022-11-24T00:37:35.373Z,82.99
2022-11-24T00:38:35.482Z,82.88
2022-11-24T00:39:35.617Z,82.64
2022-11-24T00:40:35.752Z,82.64
2022-11-24T00:41:35.900Z,82.65
2022-11-24T00:42:35.992Z,82.84
2022-11-24T00:43:36.125Z,82.82
2022-11-24T00:44:36.276Z,82.65
2022-11-24T00:45:36.435Z,82.77
2022-11-24T00:46:36.590Z,82.81
2022-11-24T00:47:36.610Z,82.55
2022-11-24T00:48:36.745Z,82.71
2022-11-24T00:49:36.880Z,82.80
2022-11-24T00:50:37.009Z,82.71
2022-11-24T00:51:37.244Z,82.82
2022-11-24T00:52:37.252Z,82.80
2022-11-24T00:53:37.432Z,82.84
2022-11-24T00:54:37.522Z,82.63
2022-11-24T00:55:37.659Z,82.94
2022-11-24T00:56:37.896Z,82.56
2022-11-24T00:57:37.927Z,82.72
2022-11-24T00:58:38.077Z,82.54
2022-11-24T00:59:38.157Z,82.42
2022-11-24T01:00:38.308Z,82.27
2022-11-24T01:01:38.516Z,82.64
2022-11-24T01:02:38.629Z,82.64
2022-11-24T01:03:38.723Z,82.40
2022-11-24T01:04:38.908Z,82.47
2022-11-24T01:05:38.988Z,82.46
2022-11-24T01:06:39.156Z,82.37
2022-11-24T01:07:39.351Z,82.20
2022-11-24T01:08:39.366Z,82.17
2022-11-24T01:09:39.504Z,82.48
2022-11-24T01:10:39.679Z,82.17
2022-11-24T01:11:39.833Z,82.01
2022-11-24T01:12:39.865Z,82.12
2022-11-24T01:13:40.004Z,81.78
2022-11-24T01:14:40.168Z,81.76
2022-11-24T01:15:40.373Z,81.65
2022-11-24T01:16:40.464Z,81.82
2022-11-24T01:17:40.558Z,81.67
2022-11-24T01:18:40.650Z,81.73
2022-11-24T01:19:40.810Z,81.79
2022-11-24T01:20:40.922Z,81.88
2022-11-24T01:21:41.113Z,81.57
2022-11-24T01:22:41.211Z,81.58
2022-11-24T01:23:41.363Z,81.60
2022-11-24T01:24:41.462Z,81.69
2022-11-24T01:25:41.612Z,81.62
2022-11-24T01:26:41.742Z,81.60
2022-11-24T01:27:41.825Z,81.33
2022-11-24T01:28:46.630Z,81.32
2022-11-24T01:29:43.091Z,81.46
2022-11-24T01:30:42.276Z,81.22
2022-11-24T01:31:42.429Z,81.16
2022-11-24T01:32:42.476Z,81.01
2022-11-24T01:33:42.621Z,81.04
2022-11-24T01:34:42.755Z,81.20
2022-11-24T01:35:42.898Z,81.08
2022-11-24T01:36:43.088Z,81.22
2022-11-24T01:37:43.132Z,81.00
2022-11-24T01:38:43.309Z,81.24
2022-11-24T01:39:43.377Z,81.18
2022-11-24T01:40:43.515Z,81.26
2022-11-24T01:41:43.676Z,81.15
2022-11-24T01:42:43.765Z,81.16
2022-11-24T01:43:43.906Z,81.02
2022-11-24T01:44:44.037Z,81.02
2022-11-24T01:45:44.264Z,80.99
2022-11-24T01:46:44.295Z,81.19
2022-11-24T01:47:44.386Z,81.18
2022-11-24T01:48:44.534Z,81.15
2022-11-24T01:49:44.653Z,81.22
2022-11-24T01:50:44.809Z,81.08
2022-11-24T01:51:44.932Z,81.02
2022-11-24T01:52:45.040Z,80.97
2022-11-24T01:53:45.184Z,81.02
2022-11-24T01:54:45.311Z,81.15
2022-11-24T01:55:45.451Z,81.30
2022-11-24T01:56:45.586Z,81.31
2022-11-24T01:57:45.653Z,81.23
2022-11-24T01:58:45.820Z,81.28
2022-11-24T01:59:45.921Z,81.23
2022-11-24T02:00:46.010Z,81.33
2022-11-24T02:01:46.243Z,81.41
2022-11-24T02:02:46.324Z,81.41
2022-11-24T02:03:46.391Z,81.48
2022-11-24T02:04:46.567Z,81.61
2022-11-24T02:05:46.679Z,81.46
2022-11-24T02:06:46.870Z,81.44
2022-11-24T02:07:46.975Z,81.57
2022-11-24T02:08:47.100Z,81.54
2022-11-24T02:09:47.259Z,81.37
2022-11-24T02:10:47.357Z,81.45
2022-11-24T02:11:47.597Z,81.42
2022-11-24T02:12:47.620Z,81.44
2022-11-24T02:13:47.787Z,81.56
2022-11-24T02:14:47.876Z,81.68
2022-11-24T02:15:48.110Z,81.53
2022-11-24T02:16:48.201Z,81.66
2022-11-24T02:17:48.296Z,81.57
2022-11-24T02:18:48.426Z,81.74
2022-11-24T02:19:48.585Z,81.78
2022-11-24T02:20:48.726Z,81.82
2022-11-24T02:21:48.856Z,81.84
2022-11-24T02:22:48.951Z,81.86
2022-11-24T02:23:49.106Z,81.89
2022-11-24T02:24:49.236Z,81.99
2022-11-24T02:25:49.382Z,82.04
2022-11-24T02:26:49.538Z,81.91
2022-11-24T02:27:53.887Z,82.07
2022-11-24T02:28:49.748Z,82.13
2022-11-24T02:29:49.904Z,82.04
2022-11-24T02:30:50.089Z,82.08
2022-11-24T02:31:50.212Z,82.24
2022-11-24T02:32:50.331Z,82.32
2022-11-24T02:33:50.452Z,82.29
2022-11-24T02:34:50.568Z,82.34
2022-11-24T02:35:50.693Z,82.29
2022-11-24T02:36:50.865Z,82.18
2022-11-24T02:37:50.979Z,82.13
2022-11-24T02:38:51.096Z,82.13
2022-11-24T02:39:51.217Z,82.16
2022-11-24T02:40:51.361Z,82.18
2022-11-24T02:41:51.542Z,82.17
2022-11-24T02:42:51.630Z,81.93
2022-11-24T02:43:51.791Z,82.11
2022-11-24T02:44:51.893Z,82.01
2022-11-24T02:45:52.064Z,82.14
2022-11-24T02:46:52.197Z,82.09
2022-11-24T02:47:52.289Z,82.12
2022-11-24T02:48:52.484Z,82.08
2022-11-24T02:49:52.579Z,82.12
2022-11-24T02:50:52.720Z,81.97
2022-11-24T02:51:53.051Z,81.93
2022-11-24T02:52:52.925Z,81.84
2022-11-24T02:53:53.047Z,81.89
2022-11-24T02:54:53.237Z,81.75
2022-11-24T02:55:53.369Z,81.80
2022-11-24T02:56:53.465Z,81.78
2022-11-24T02:57:53.565Z,81.73
2022-11-24T02:58:53.705Z,81.67
2022-11-24T02:59:53.877Z,81.45
2022-11-24T03:00:53.990Z,81.54
2022-11-24T03:01:54.187Z,81.49
2022-11-24T03:02:55.220Z,81.51
2022-11-24T03:03:54.335Z,81.53
2022-11-24T03:04:54.478Z,81.69
2022-11-24T03:05:54.636Z,81.69
2022-11-24T03:06:54.779Z,81.71
2022-11-24T03:07:54.954Z,81.82
2022-11-24T03:08:55.001Z,81.81
2022-11-24T03:09:55.144Z,81.86
2022-11-24T03:10:55.296Z,81.92
2022-11-24T03:11:55.456Z,81.94
2022-11-24T03:12:55.551Z,81.89
2022-11-24T03:13:55.672Z,81.88
2022-11-24T03:14:55.784Z,81.86
2022-11-24T03:15:55.970Z,81.89
2022-11-24T03:16:56.124Z,81.82
2022-11-24T03:17:56.191Z,81.84
2022-11-24T03:18:56.334Z,81.80
2022-11-24T03:20:00.199Z,81.85
2022-11-24T03:20:57.599Z,81.88
2022-11-24T03:21:56.770Z,81.94
2022-11-24T03:22:56.858Z,81.85
2022-11-24T03:23:57.000Z,81.81
2022-11-24T03:24:57.140Z,81.88
2022-11-24T03:25:57.288Z,81.88
2022-11-24T03:26:57.479Z,81.76
2022-11-24T03:27:57.548Z,81.68
2022-11-24T03:28:57.642Z,81.75
2022-11-24T03:29:57.792Z,81.60
2022-11-24T03:30:57.975Z,81.61
2022-11-24T03:31:58.096Z,81.61
2022-11-24T03:32:58.247Z,81.56
2022-11-24T03:33:58.346Z,81.50
2022-11-24T03:34:58.463Z,81.46
2022-11-24T03:35:58.605Z,81.42
2022-11-24T03:36:58.734Z,81.43
2022-11-24T03:37:59.062Z,81.60
2022-11-24T03:38:59.015Z,81.58
2022-11-24T03:39:59.133Z,81.57
2022-11-24T03:40:59.220Z,81.59
2022-11-24T03:41:59.386Z,81.53
2022-11-24T03:42:59.505Z,81.46
2022-11-24T03:43:59.599Z,81.36
2022-11-24T03:45:11.778Z,81.23
2022-11-24T03:46:00.862Z,81.39
2022-11-24T03:46:59.964Z,81.45
2022-11-24T03:48:00.103Z,81.40
2022-11-24T03:49:00.243Z,81.20
2022-11-24T03:50:00.377Z,81.34
2022-11-24T03:51:00.522Z,81.23
2022-11-24T03:52:07.635Z,81.17
2022-11-24T03:53:01.835Z,81.26
2022-11-24T03:54:00.914Z,81.25
2022-11-24T03:55:01.040Z,81.27
2022-11-24T03:56:01.171Z,81.16
2022-11-24T03:57:01.349Z,81.23
2022-11-24T03:58:01.450Z,81.20
2022-11-24T03:59:01.530Z,80.97
2022-11-24T04:00:01.669Z,80.78
2022-11-24T04:01:01.831Z,80.89
2022-11-24T04:02:02.055Z,80.82
2022-11-24T04:03:02.209Z,80.73
2022-11-24T04:04:02.248Z,80.58
2022-11-24T04:05:02.328Z,80.48
2022-11-24T04:06:02.459Z,80.37
2022-11-24T04:07:02.599Z,80.52
2022-11-24T04:08:02.800Z,80.51
2022-11-24T04:09:02.828Z,80.35
2022-11-24T04:10:02.987Z,80.40
2022-11-24T04:11:03.088Z,80.59
2022-11-24T04:12:03.769Z,80.43
2022-11-24T04:13:03.399Z,80.64
2022-11-24T04:14:04.355Z,80.74
2022-11-24T04:15:03.607Z,80.55
2022-11-24T04:16:03.765Z,80.52
2022-11-24T04:17:03.863Z,80.62
2022-11-24T04:18:04.019Z,80.64
2022-11-24T04:19:04.165Z,80.75
2022-11-24T04:20:04.244Z,80.78
2022-11-24T04:21:04.382Z,80.67
2022-11-24T04:22:04.494Z,80.58
2022-11-24T04:23:04.676Z,80.87
2022-11-24T04:24:04.818Z,80.84
2022-11-24T04:25:04.914Z,80.90
2022-11-24T04:26:05.002Z,81.05
2022-11-24T04:27:05.123Z,80.98
2022-11-24T04:28:05.262Z,81.35
2022-11-24T04:29:05.988Z,81.73
2022-11-24T04:30:05.534Z,81.86
2022-11-24T04:31:05.751Z,81.98
2022-11-24T04:32:05.811Z,82.38
2022-11-24T04:33:05.953Z,82.69
2022-11-24T04:34:06.101Z,82.58
2022-11-24T04:35:06.224Z,83.19
2022-11-24T04:36:06.325Z,83.44
2022-11-24T04:37:06.479Z,83.78
2022-11-24T04:38:06.654Z,83.97
2022-11-24T04:39:23.940Z,83.86
2022-11-24T04:40:07.888Z,84.23
2022-11-24T04:41:07.020Z,84.26
2022-11-24T04:42:07.130Z,84.06
2022-11-24T04:43:07.233Z,84.36
2022-11-24T04:44:07.381Z,84.39
2022-11-24T04:45:07.503Z,84.80
2022-11-24T04:46:07.603Z,84.90
2022-11-24T04:47:07.719Z,85.12
2022-11-24T04:48:07.903Z,85.19
2022-11-24T04:49:08.077Z,85.31
2022-11-24T04:50:08.138Z,85.47
2022-11-24T04:51:08.227Z,85.46
2022-11-24T04:52:08.378Z,85.49
2022-11-24T04:53:08.571Z,85.72
2022-11-24T04:54:08.708Z,85.64
2022-11-24T04:55:08.777Z,85.63
2022-11-24T04:56:08.937Z,85.47
2022-11-24T04:57:09.054Z,85.34
2022-11-24T04:58:09.132Z,85.15
2022-11-24T04:59:09.366Z,85.54
2022-11-24T05:00:09.427Z,85.65
2022-11-24T05:01:09.539Z,85.75
2022-11-24T05:02:09.942Z,86.13
2022-11-24T05:03:09.889Z,85.87
2022-11-24T05:04:10.017Z,85.61
2022-11-24T05:05:10.111Z,85.28
2022-11-24T05:06:10.201Z,85.52
2022-11-24T05:07:14.843Z,85.64
2022-11-24T05:08:11.468Z,85.85
2022-11-24T05:09:10.693Z,85.90
2022-11-24T05:10:10.725Z,85.92
2022-11-24T05:11:10.853Z,85.77
2022-11-24T05:12:10.997Z,86.07
2022-11-24T05:13:11.121Z,86.37
2022-11-24T05:14:11.352Z,86.25
2022-11-24T05:15:11.380Z,86.38
2022-11-24T05:16:11.571Z,86.43
2022-11-24T05:17:11.672Z,86.92
2022-11-24T05:18:11.779Z,86.87
2022-11-24T05:19:12.010Z,87.23
2022-11-24T05:20:12.070Z,87.26
2022-11-24T05:21:12.181Z,86.68
2022-11-24T05:22:12.304Z,86.66
2022-11-24T05:23:12.443Z,87.12
2022-11-24T05:24:12.559Z,87.23
2022-11-24T05:25:12.646Z,87.47
2022-11-24T05:26:12.770Z,87.83
2022-11-24T05:27:12.867Z,88.28
2022-11-24T05:28:12.957Z,88.41
2022-11-24T05:29:13.161Z,88.62
2022-11-24T05:30:13.219Z,88.98
2022-11-24T05:31:13.367Z,88.85
2022-11-24T05:32:13.393Z,89.10
2022-11-24T05:33:13.517Z,89.28
2022-11-24T05:34:13.627Z,88.85
2022-11-24T05:35:13.747Z,89.17
2022-11-24T05:36:13.842Z,89.14
2022-11-24T05:37:13.946Z,88.29
2022-11-24T05:38:14.055Z,88.15
2022-11-24T05:39:14.195Z,88.41
2022-11-24T05:40:14.310Z,88.12
2022-11-24T05:41:14.425Z,88.30
2022-11-24T05:42:14.534Z,88.66
2022-11-24T05:43:14.673Z,88.46
2022-11-24T05:44:14.802Z,88.47
2022-11-24T05:45:14.927Z,88.21
2022-11-24T05:46:15.072Z,87.97
2022-11-24T05:47:15.145Z,87.65
2022-11-24T05:48:15.262Z,87.41
2022-11-24T05:49:15.521Z,87.28
2022-11-24T05:50:15.479Z,87.27
2022-11-24T05:51:15.582Z,87.13
2022-11-24T05:52:15.709Z,87.74
2022-11-24T05:53:15.813Z,88.24
2022-11-24T05:54:16.050Z,88.45
2022-11-24T05:55:16.087Z,88.56
2022-11-24T05:56:16.156Z,88.80
2022-11-24T05:57:16.261Z,88.77
2022-11-24T05:58:16.369Z,88.84
2022-11-24T05:59:20.139Z,88.56
2022-11-24T06:00:16.589Z,88.76
2022-11-24T06:01:16.690Z,88.68
2022-11-24T06:02:17.359Z,88.85
2022-11-24T06:03:16.968Z,88.96
2022-11-24T06:04:17.036Z,88.89
2022-11-24T06:05:17.173Z,88.98
2022-11-24T06:06:17.267Z,88.93
2022-11-24T06:07:17.395Z,88.76
2022-11-24T06:08:17.455Z,88.78
2022-11-24T06:09:17.658Z,88.53
2022-11-24T06:10:17.715Z,88.69
2022-11-24T06:11:17.849Z,88.48
2022-11-24T06:12:17.937Z,88.44
2022-11-24T06:13:18.074Z,88.24
2022-11-24T06:14:18.182Z,88.14
2022-11-24T06:15:18.304Z,88.03
2022-11-24T06:16:18.453Z,87.95
2022-11-24T06:17:18.504Z,88.02
2022-11-24T06:18:18.632Z,88.04
2022-11-24T06:19:18.784Z,87.89
2022-11-24T06:20:18.846Z,88.01
2022-11-24T06:21:18.952Z,87.94
2022-11-24T06:22:19.075Z,87.96
2022-11-24T06:23:19.172Z,87.91
2022-11-24T06:24:19.304Z,87.80
2022-11-24T06:25:19.410Z,87.78
2022-11-24T06:26:19.501Z,87.89
2022-11-24T06:27:19.615Z,88.06
2022-11-24T06:28:19.730Z,88.02
2022-11-24T06:29:19.984Z,87.93
2022-11-24T06:30:19.940Z,87.92
2022-11-24T06:31:20.087Z,87.99
2022-11-24T06:32:20.177Z,87.87
2022-11-24T06:33:20.268Z,87.91
2022-11-24T06:34:20.453Z,87.87
2022-11-24T06:35:20.512Z,87.71
2022-11-24T06:36:20.628Z,87.82
2022-11-24T06:37:20.731Z,87.79
2022-11-24T06:38:24.303Z,87.81
2022-11-24T06:39:21.020Z,87.84
2022-11-24T06:40:21.107Z,87.73
2022-11-24T06:41:21.188Z,87.77
2022-11-24T06:42:21.309Z,87.51
2022-11-24T06:43:21.427Z,87.43
2022-11-24T06:44:21.668Z,87.31
2022-11-24T06:45:21.628Z,87.38
2022-11-24T06:46:21.770Z,87.00
2022-11-24T06:47:21.868Z,86.86
2022-11-24T06:48:21.988Z,86.84
2022-11-24T06:49:22.177Z,86.80
2022-11-24T06:50:22.176Z,86.85
2022-11-24T06:51:22.304Z,86.89
2022-11-24T06:52:22.421Z,86.91
2022-11-24T06:53:22.544Z,86.78
2022-11-24T06:54:22.728Z,86.88
2022-11-24T06:55:22.719Z,86.61
2022-11-24T06:56:22.823Z,86.67
2022-11-24T06:57:22.946Z,86.49
2022-11-24T06:58:23.043Z,86.39
2022-11-24T06:59:23.204Z,86.35
2022-11-24T07:00:23.293Z,86.28
2022-11-24T07:01:24.386Z,86.27
2022-11-24T07:02:23.492Z,86.30
2022-11-24T07:03:23.696Z,86.34
2022-11-24T07:04:23.752Z,86.36
2022-11-24T07:05:23.811Z,86.39
2022-11-24T07:06:23.943Z,86.33
2022-11-24T07:07:24.128Z,86.36
2022-11-24T07:08:24.151Z,86.34
2022-11-24T07:09:24.399Z,86.31
2022-11-24T07:10:24.390Z,86.32
2022-11-24T07:11:24.528Z,86.30
2022-11-24T07:12:24.682Z,86.31
2022-11-24T07:13:24.798Z,86.37
2022-11-24T07:14:24.969Z,86.30
2022-11-24T07:15:25.058Z,86.34
2022-11-24T07:16:25.272Z,86.34
2022-11-24T07:17:25.339Z,86.46
2022-11-24T07:18:25.470Z,86.41
2022-11-24T07:19:25.627Z,86.36
2022-11-24T07:20:25.733Z,86.29
2022-11-24T07:21:25.857Z,86.31
2022-11-24T07:22:25.996Z,86.32
2022-11-24T07:23:26.136Z,86.26
2022-11-24T07:24:26.277Z,86.24
2022-11-24T07:25:26.412Z,86.27
2022-11-24T07:26:26.537Z,86.22
2022-11-24T07:27:26.658Z,86.14
2022-11-24T07:28:26.811Z,86.17
2022-11-24T07:29:27.005Z,86.09
2022-11-24T07:30:27.061Z,86.09
2022-11-24T07:31:27.255Z,86.03
2022-11-24T07:32:27.323Z,86.02
2022-11-24T07:33:27.459Z,86.15
2022-11-24T07:34:27.596Z,86.13
2022-11-24T07:35:27.719Z,85.96
2022-11-24T07:36:27.844Z,85.86
2022-11-24T07:37:31.280Z,85.61
2022-11-24T07:38:28.086Z,85.59
2022-11-24T07:39:28.232Z,85.47
2022-11-24T07:40:28.380Z,85.53
2022-11-24T07:41:28.470Z,85.43
2022-11-24T07:42:28.552Z,85.36
2022-11-24T07:43:28.684Z,85.37
2022-11-24T07:44:28.853Z,85.45
2022-11-24T07:45:29.029Z,85.24
2022-11-24T07:46:29.126Z,85.04
2022-11-24T07:47:29.221Z,84.99
2022-11-24T07:48:29.318Z,85.00
2022-11-24T07:49:29.540Z,85.01
2022-11-24T07:50:29.590Z,84.85
2022-11-24T07:51:29.690Z,84.88
2022-11-24T07:52:29.853Z,84.94
2022-11-24T07:53:29.979Z,84.86
2022-11-24T07:54:30.163Z,84.78
2022-11-24T07:55:30.255Z,84.70
2022-11-24T07:56:30.400Z,84.71
2022-11-24T07:57:30.496Z,84.66
2022-11-24T07:58:32.860Z,84.61
2022-11-24T07:59:30.796Z,84.69
2022-11-24T08:00:30.886Z,84.76
2022-11-24T08:01:31.088Z,84.57
2022-11-24T08:02:31.155Z,84.44
2022-11-24T08:03:31.397Z,84.41
2022-11-24T08:04:31.562Z,84.32
2022-11-24T08:05:31.564Z,84.35
2022-11-24T08:06:40.687Z,84.09
2022-11-24T08:07:32.860Z,84.15
2022-11-24T08:08:32.009Z,84.01
2022-11-24T08:09:32.137Z,84.00
2022-11-24T08:10:32.239Z,83.99
2022-11-24T08:11:32.386Z,83.81
2022-11-24T08:12:32.482Z,83.79
2022-11-24T08:13:32.664Z,83.80
2022-11-24T08:14:33.075Z,83.72
2022-11-24T08:15:32.886Z,83.78
2022-11-24T08:16:33.137Z,83.96
2022-11-24T08:17:33.141Z,83.85
2022-11-24T08:18:33.491Z,83.66
2022-11-24T08:19:33.433Z,83.89
2022-11-24T08:20:33.554Z,83.67
2022-11-24T08:21:33.710Z,83.73
2022-11-24T08:22:33.834Z,83.48
2022-11-24T08:23:33.930Z,83.65
2022-11-24T08:24:34.257Z,83.49
2022-11-24T08:25:34.359Z,83.54
2022-11-24T08:26:34.301Z,83.54
2022-11-24T08:27:34.440Z,83.48
2022-11-24T08:28:34.614Z,83.60
2022-11-24T08:29:34.766Z,83.44
2022-11-24T08:30:34.859Z,83.35
2022-11-24T08:31:35.024Z,83.62
2022-11-24T08:32:35.118Z,83.61
2022-11-24T08:33:35.256Z,83.50
2022-11-24T08:34:35.468Z,83.62
2022-11-24T08:35:35.462Z,83.34
2022-11-24T08:36:35.625Z,83.29
2022-11-24T08:37:35.734Z,83.32
2022-11-24T08:38:35.906Z,83.28
2022-11-24T08:39:36.007Z,83.32
2022-11-24T08:40:36.130Z,83.31
2022-11-24T08:41:36.391Z,83.24
2022-11-24T08:42:36.397Z,83.43
2022-11-24T08:43:36.559Z,83.42
2022-11-24T08:44:37.111Z,83.48
2022-11-24T08:45:41.427Z,83.07
2022-11-24T08:46:37.956Z,83.05
2022-11-24T08:47:37.054Z,83.18
2022-11-24T08:48:37.215Z,82.93
2022-11-24T08:49:37.324Z,83.06
2022-11-24T08:50:37.457Z,83.05
2022-11-24T08:51:37.602Z,82.97
2022-11-24T08:52:37.703Z,82.90
2022-11-24T08:53:37.834Z,83.18
2022-11-24T08:54:37.992Z,83.10
2022-11-24T08:55:38.108Z,82.98
2022-11-24T08:56:39.192Z,82.86
2022-11-24T08:57:38.373Z,83.10
2022-11-24T08:58:38.601Z,82.95
2022-11-24T08:59:38.643Z,83.06
2022-11-24T09:00:38.790Z,83.17
2022-11-24T09:01:38.967Z,83.19
2022-11-24T09:02:38.973Z,83.31
2022-11-24T09:03:41.231Z,83.59
2022-11-24T09:04:40.343Z,83.14
2022-11-24T09:05:54.708Z,83.20
2022-11-24T09:06:40.490Z,83.15
2022-11-24T09:07:39.678Z,83.26
2022-11-24T09:08:39.738Z,82.99
2022-11-24T09:09:39.937Z,83.22
2022-11-24T09:10:40.046Z,82.98
2022-11-24T09:11:40.168Z,82.92
2022-11-24T09:12:40.307Z,82.81
2022-11-24T09:13:40.454Z,82.85
2022-11-24T09:14:40.629Z,82.86
2022-11-24T09:15:40.738Z,82.54
2022-11-24T09:16:40.896Z,82.77
2022-11-24T09:17:40.968Z,82.90
2022-11-24T09:18:41.229Z,82.45
2022-11-24T09:19:41.234Z,82.24
2022-11-24T09:20:41.451Z,82.28
2022-11-24T09:21:41.513Z,82.19
2022-11-24T09:22:41.602Z,82.33
2022-11-24T09:23:41.775Z,82.11
2022-11-24T09:24:41.874Z,82.18
2022-11-24T09:25:42.005Z,81.86
2022-11-24T09:26:47.324Z,82.01
2022-11-24T09:27:43.313Z,81.85
2022-11-24T09:28:42.458Z,81.76
2022-11-24T09:29:42.654Z,82.10
2022-11-24T09:30:42.771Z,81.67
2022-11-24T09:31:42.837Z,81.52
2022-11-24T09:32:43.001Z,81.56
2022-11-24T09:33:43.240Z,81.75
2022-11-24T09:34:43.240Z,81.51
2022-11-24T09:35:43.351Z,81.47
2022-11-24T09:36:43.492Z,81.21
2022-11-24T09:37:43.621Z,81.27
2022-11-24T09:38:43.802Z,81.60
2022-11-24T09:39:43.906Z,80.71
2022-11-24T09:40:44.022Z,80.75
2022-11-24T09:41:44.102Z,80.54
2022-11-24T09:42:48.055Z,80.47
2022-11-24T09:43:45.388Z,80.10
2022-11-24T09:44:44.461Z,80.27
2022-11-24T09:46:45.745Z,80.75
2022-11-24T09:47:44.865Z,80.33
2022-11-24T09:48:45.016Z,80.16
2022-11-24T09:49:48.559Z,80.20
2022-11-24T09:50:46.274Z,80.16
2022-11-24T09:51:45.407Z,79.88
2022-11-24T09:52:45.516Z,79.99
2022-11-24T09:53:45.687Z,80.01
2022-11-24T09:54:45.771Z,79.82
2022-11-24T09:55:45.899Z,79.76
2022-11-24T09:56:46.067Z,79.63
2022-11-24T09:57:46.194Z,79.68
2022-11-24T09:58:46.881Z,79.67
2022-11-24T09:59:46.456Z,79.43
2022-11-24T10:00:46.594Z,79.32
2022-11-24T10:01:46.817Z,79.43
2022-11-24T10:02:46.856Z,78.71
2022-11-24T10:03:47.045Z,78.88
2022-11-24T10:04:47.174Z,78.83
2022-11-24T10:05:47.271Z,78.76
2022-11-24T10:06:47.395Z,78.94
2022-11-24T10:07:47.616Z,78.93
2022-11-24T10:08:47.693Z,78.88
2022-11-24T10:09:47.791Z,78.91
2022-11-24T10:10:47.902Z,78.75
2022-11-24T10:11:47.982Z,78.46
2022-11-24T10:12:48.134Z,78.51
2022-11-24T10:13:48.273Z,78.48
2022-11-24T10:14:48.389Z,78.70
2022-11-24T10:15:48.521Z,78.80
2022-11-24T10:16:48.975Z,78.47
2022-11-24T10:17:48.731Z,78.56
2022-11-24T10:18:48.930Z,78.54
2022-11-24T10:19:49.040Z,78.49
2022-11-24T10:20:49.152Z,78.39
2022-11-24T10:21:49.240Z,78.22
2022-11-24T10:22:49.378Z,78.81
2022-11-24T10:23:49.521Z,77.98
2022-11-24T10:24:49.667Z,77.88
2022-11-24T10:25:49.809Z,78.19
2022-11-24T10:26:49.937Z,77.86
2022-11-24T10:27:50.115Z,77.92
2022-11-24T10:28:50.298Z,77.94
2022-11-24T10:29:50.406Z,77.85
2022-11-24T10:30:50.521Z,78.05
2022-11-24T10:31:50.609Z,77.78
2022-11-24T10:32:51.707Z,77.30
2022-11-24T10:33:50.917Z,77.16
2022-11-24T10:34:51.958Z,77.37
2022-11-24T10:35:51.188Z,77.72
2022-11-24T10:36:51.274Z,77.21
2022-11-24T10:37:51.399Z,76.97
2022-11-24T10:38:51.572Z,76.56
2022-11-24T10:39:54.789Z,76.93
2022-11-24T10:40:57.496Z,77.11
2022-11-24T10:41:52.913Z,76.62
2022-11-24T10:42:52.063Z,76.24
2022-11-24T10:43:52.175Z,76.64
2022-11-24T10:44:52.310Z,76.46
2022-11-24T10:45:52.466Z,76.26
2022-11-24T10:46:52.581Z,75.94
2022-11-24T10:47:52.653Z,76.11
2022-11-24T10:48:52.803Z,76.64
2022-11-24T10:49:52.972Z,76.20
2022-11-24T10:50:53.023Z,76.34
2022-11-24T10:51:53.166Z,76.75
2022-11-24T10:52:53.271Z,76.58
2022-11-24T10:53:53.354Z,76.94
2022-11-24T10:54:53.536Z,76.16
2022-11-24T10:55:53.622Z,76.59
2022-11-24T10:56:53.750Z,75.83
2022-11-24T10:57:53.905Z,76.11
2022-11-24T10:58:54.011Z,76.12
2022-11-24T10:59:54.126Z,75.98
2022-11-24T11:00:54.224Z,76.10
2022-11-24T11:01:54.416Z,76.51
2022-11-24T11:02:54.501Z,76.19
2022-11-24T11:03:54.638Z,75.51
2022-11-24T11:04:54.828Z,75.90
2022-11-24T11:05:54.928Z,75.91
2022-11-24T11:06:55.031Z,75.91
2022-11-24T11:07:55.248Z,75.88
2022-11-24T11:08:55.312Z,75.64
2022-11-24T11:09:55.469Z,75.55
2022-11-24T11:10:55.577Z,75.58
2022-11-24T11:11:56.956Z,75.33
2022-11-24T11:12:55.850Z,75.41
2022-11-24T11:14:03.164Z,75.29
2022-11-24T11:14:57.166Z,75.19
2022-11-24T11:15:56.327Z,74.96
2022-11-24T11:16:56.366Z,74.96
2022-11-24T11:17:56.517Z,75.25
2022-11-24T11:18:56.612Z,74.97
2022-11-24T11:20:02.006Z,75.17
2022-11-24T11:20:57.871Z,75.12
2022-11-24T11:21:56.956Z,74.82
2022-11-24T11:22:57.144Z,74.93
2022-11-24T11:23:57.239Z,74.36
2022-11-24T11:24:57.414Z,75.30
2022-11-24T11:25:57.525Z,74.68
2022-11-24T11:26:57.638Z,74.76
2022-11-24T11:27:57.734Z,75.11
2022-11-24T11:28:57.843Z,74.87
2022-11-24T11:31:17.781Z,74.21
2022-11-24T11:34:04.189Z,73.48
2022-11-24T11:34:59.661Z,73.29
2022-11-24T11:35:58.836Z,73.11
2022-11-24T11:36:58.884Z,73.60
2022-11-24T11:37:58.993Z,74.08
2022-11-24T11:38:59.112Z,73.21
2022-11-24T11:39:59.281Z,73.30
2022-11-24T11:40:59.371Z,73.06
2022-11-24T11:41:59.480Z,73.03
2022-11-24T11:43:02.857Z,73.84
2022-11-24T11:43:59.747Z,73.47
2022-11-24T11:44:59.869Z,72.77
2022-11-24T11:45:59.999Z,72.64
2022-11-24T11:47:00.224Z,72.39
2022-11-24T11:48:00.188Z,72.28
2022-11-24T11:49:00.357Z,72.46
2022-11-24T11:50:00.519Z,72.53
2022-11-24T11:51:22.374Z,72.31
2022-11-24T11:52:01.687Z,72.61
2022-11-24T11:53:00.906Z,71.53
2022-11-24T11:54:01.027Z,72.04
2022-11-24T11:55:01.125Z,71.52
2022-11-24T11:56:01.281Z,72.18
2022-11-24T11:57:01.367Z,72.25
2022-11-24T11:58:01.474Z,71.62
2022-11-24T11:59:01.601Z,72.42
2022-11-24T12:00:02.029Z,71.89
2022-11-24T12:01:01.816Z,71.48
2022-11-24T12:02:01.926Z,71.83
2022-11-24T12:03:02.245Z,71.85
2022-11-24T12:04:02.223Z,72.18
2022-11-24T12:05:02.346Z,72.87
2022-11-24T12:06:02.408Z,71.69
2022-11-24T12:07:02.553Z,72.03
2022-11-24T12:08:09.266Z,71.91
2022-11-24T12:09:19.942Z,71.82
2022-11-24T12:10:03.945Z,71.50
2022-11-24T12:11:03.036Z,71.73
2022-11-24T12:12:03.181Z,71.48
2022-11-24T12:13:03.302Z,70.98
2022-11-24T12:14:03.416Z,71.01
2022-11-24T12:15:10.329Z,70.88
2022-11-24T12:16:04.737Z,71.48
2022-11-24T12:17:03.801Z,70.41
2022-11-24T12:18:03.889Z,70.81
2022-11-24T12:19:04.031Z,70.85
2022-11-24T12:20:04.199Z,70.81
2022-11-24T12:21:04.230Z,70.84
2022-11-24T12:22:04.319Z,70.82
2022-11-24T12:23:04.459Z,70.97
2022-11-24T12:24:04.578Z,70.74
2022-11-24T12:25:04.740Z,70.05
2022-11-24T12:26:04.780Z,70.09
2022-11-24T12:27:04.890Z,69.83
2022-11-24T12:28:05.009Z,69.84
2022-11-24T12:29:05.121Z,70.44
2022-11-24T12:30:05.468Z,70.30
2022-11-24T12:31:05.494Z,70.49
2022-11-24T12:32:05.568Z,70.33
2022-11-24T12:33:05.699Z,69.76
2022-11-24T12:34:05.816Z,70.66
2022-11-24T12:35:05.929Z,70.11
2022-11-24T12:36:06.019Z,69.74
2022-11-24T12:37:06.136Z,69.43
2022-11-24T12:38:06.242Z,69.65
2022-11-24T12:39:06.376Z,69.69
2022-11-24T12:40:06.547Z,69.65
2022-11-24T12:41:33.687Z,70.52
2022-11-24T12:42:07.781Z,70.42
2022-11-24T12:43:06.904Z,70.31
2022-11-24T12:44:07.002Z,70.05
2022-11-24T12:45:07.105Z,69.98
2022-11-24T12:46:09.951Z,69.70
2022-11-24T12:47:08.378Z,70.23
2022-11-24T12:48:07.454Z,70.37
2022-11-24T12:49:07.573Z,69.90
2022-11-24T12:50:07.763Z,70.08
2022-11-24T12:51:07.755Z,69.79
2022-11-24T12:52:07.915Z,69.20
2022-11-24T12:53:07.993Z,69.36
2022-11-24T12:54:08.103Z,70.43
2022-11-24T12:55:08.323Z,69.45
2022-11-24T12:56:08.357Z,69.31
2022-11-24T12:57:08.453Z,69.07
2022-11-24T12:58:11.208Z,69.15